This is the latest recevied weather packets stored in our database for station/object S51UL-6. If no packets are shown the sender has not sent any weather packets the latest 10 day(s).
| Time | Temp. | Humidity | Pressure | Rain* | Wind** | Luminosity | Snow |
|---|---|---|---|---|---|---|---|
| 1777364728 | 18.33° C | 51% | 1020.5 hPa | 0 mm | - | - | - |
| 1777364428 | 18.33° C | 52% | 1020.6 hPa | 0 mm | - | - | - |
| 1777363828 | 17.78° C | 52% | 1020.5 hPa | 0 mm | - | - | - |
| 1777363528 | 18.33° C | 52% | 1020.6 hPa | 0 mm | - | - | - |
| 1777363229 | 17.78° C | 54% | 1020.6 hPa | 0 mm | - | - | - |
| 1777362928 | 17.22° C | 55% | 1020.5 hPa | 0 mm | - | - | - |
| 1777362328 | 16.67° C | 58% | 1020.5 hPa | 0 mm | - | - | - |
| 1777362028 | 15.56° C | 58% | 1020.5 hPa | 0 mm | - | - | - |
| 1777361729 | 15.56° C | 59% | 1020.5 hPa | 0 mm | - | - | - |
| 1777361428 | 15.56° C | 59% | 1020.6 hPa | 0 mm | - | - | - |
| 1777359028 | 12.78° C | 67% | 1020.6 hPa | 0 mm | - | - | - |
| 1777358430 | 12.22° C | 72% | 1020.5 hPa | 0 mm | - | - | - |
| 1777358128 | 11.67° C | 75% | 1020.6 hPa | 0 mm | - | - | - |
| 1777357829 | 11.11° C | 75% | 1020.5 hPa | 0 mm | - | - | - |
| 1777357529 | 11.11° C | 77% | 1020.5 hPa | 0 mm | - | - | - |
| 1777357229 | 10.56° C | 79% | 1020.5 hPa | 0 mm | - | - | - |
| 1777356929 | 10° C | 81% | 1020.6 hPa | 0 mm | - | - | - |
| 1777356029 | 8.33° C | 84% | 1020.5 hPa | 0 mm | - | - | - |
| 1777355730 | 8.33° C | 83% | 1020.8 hPa | 0 mm | - | - | - |
| 1777355129 | 7.78° C | 83% | 1020.4 hPa | 0 mm | - | - | - |
| 1777354829 | 7.22° C | 83% | 1020.6 hPa | 0 mm | - | - | - |
| 1777354529 | 6.67° C | 84% | 1020.5 hPa | 0 mm | - | - | - |
| 1777352430 | 6.11° C | 83% | 1020.2 hPa | 0 mm | - | - | - |
| 1777352132 | 5.56° C | 83% | 1020.2 hPa | 0 mm | - | - | - |
| 1777351529 | 5.56° C | 82% | 1020.2 hPa | 0 mm | - | - | - |
* Rain latest hour (hover to see other rain measurements)
** Current wind speed in m/s (hover to see current wind gust speed)